sensor_id;sensor_type;location;lat;lon;timestamp;pressure;altitude;pressure_sealevel;temperature
54746;BMP180;40640;48.130;11.356;2023-07-31T00:01:23;95824.00;;;18.40
54746;BMP180;40640;48.130;11.356;2023-07-31T00:05:26;95829.00;;;18.40
54746;BMP180;40640;48.130;11.356;2023-07-31T00:09:30;95835.00;;;18.20
54746;BMP180;40640;48.130;11.356;2023-07-31T00:13:33;95833.00;;;18.20
54746;BMP180;40640;48.130;11.356;2023-07-31T00:17:36;95836.00;;;18.20
54746;BMP180;40640;48.130;11.356;2023-07-31T00:21:39;95829.00;;;18.30
54746;BMP180;40640;48.130;11.356;2023-07-31T00:25:43;95819.00;;;18.30
54746;BMP180;40640;48.130;11.356;2023-07-31T00:29:46;95814.00;;;18.30
54746;BMP180;40640;48.130;11.356;2023-07-31T00:33:49;95819.00;;;18.20
54746;BMP180;40640;48.130;11.356;2023-07-31T00:37:52;95813.00;;;18.20
54746;BMP180;40640;48.130;11.356;2023-07-31T00:41:56;95804.00;;;18.20
54746;BMP180;40640;48.130;11.356;2023-07-31T00:45:59;95802.00;;;18.20
54746;BMP180;40640;48.130;11.356;2023-07-31T00:50:03;95801.00;;;18.20
54746;BMP180;40640;48.130;11.356;2023-07-31T00:54:06;95798.00;;;18.10
54746;BMP180;40640;48.130;11.356;2023-07-31T00:58:10;95797.00;;;18.10
54746;BMP180;40640;48.130;11.356;2023-07-31T01:02:13;95793.00;;;18.10
54746;BMP180;40640;48.130;11.356;2023-07-31T01:06:25;95784.00;;;18.00
54746;BMP180;40640;48.130;11.356;2023-07-31T01:10:34;95796.00;;;18.00
54746;BMP180;40640;48.130;11.356;2023-07-31T01:14:40;95789.00;;;18.00
54746;BMP180;40640;48.130;11.356;2023-07-31T01:18:42;95793.00;;;18.00
54746;BMP180;40640;48.130;11.356;2023-07-31T01:22:56;95779.00;;;18.00
54746;BMP180;40640;48.130;11.356;2023-07-31T01:27:06;95785.00;;;17.90
54746;BMP180;40640;48.130;11.356;2023-07-31T01:31:11;95775.00;;;18.00
54746;BMP180;40640;48.130;11.356;2023-07-31T01:35:15;95770.00;;;17.90
54746;BMP180;40640;48.130;11.356;2023-07-31T01:39:20;95766.00;;;17.90
54746;BMP180;40640;48.130;11.356;2023-07-31T01:43:24;95780.00;;;17.80
54746;BMP180;40640;48.130;11.356;2023-07-31T01:47:27;95762.00;;;17.80
54746;BMP180;40640;48.130;11.356;2023-07-31T01:51:30;95755.00;;;17.70
54746;BMP180;40640;48.130;11.356;2023-07-31T01:55:35;95757.00;;;17.60
54746;BMP180;40640;48.130;11.356;2023-07-31T01:59:40;95760.00;;;17.70
54746;BMP180;40640;48.130;11.356;2023-07-31T02:03:42;95763.00;;;17.60
54746;BMP180;40640;48.130;11.356;2023-07-31T02:07:45;95756.00;;;17.50
54746;BMP180;40640;48.130;11.356;2023-07-31T02:11:49;95749.00;;;17.50
54746;BMP180;40640;48.130;11.356;2023-07-31T02:15:53;95749.00;;;17.60
54746;BMP180;40640;48.130;11.356;2023-07-31T02:19:56;95748.00;;;17.50
54746;BMP180;40640;48.130;11.356;2023-07-31T02:23:59;95740.00;;;17.50
54746;BMP180;40640;48.130;11.356;2023-07-31T02:28:02;95729.00;;;17.30
54746;BMP180;40640;48.130;11.356;2023-07-31T02:32:06;95723.00;;;17.30
54746;BMP180;40640;48.130;11.356;2023-07-31T02:36:10;95722.00;;;17.20
54746;BMP180;40640;48.130;11.356;2023-07-31T02:40:13;95715.00;;;17.10
54746;BMP180;40640;48.130;11.356;2023-07-31T02:44:16;95708.00;;;17.20
54746;BMP180;40640;48.130;11.356;2023-07-31T02:48:20;95715.00;;;17.10
54746;BMP180;40640;48.130;11.356;2023-07-31T02:52:23;95710.00;;;17.00
54746;BMP180;40640;48.130;11.356;2023-07-31T02:56:26;95708.00;;;17.00
54746;BMP180;40640;48.130;11.356;2023-07-31T03:00:29;95711.00;;;16.90
54746;BMP180;40640;48.130;11.356;2023-07-31T03:04:33;95716.00;;;16.90
54746;BMP180;40640;48.130;11.356;2023-07-31T03:08:36;95700.00;;;16.90
54746;BMP180;40640;48.130;11.356;2023-07-31T03:12:40;95703.00;;;16.80
54746;BMP180;40640;48.130;11.356;2023-07-31T03:16:43;95701.00;;;16.70
54746;BMP180;40640;48.130;11.356;2023-07-31T03:20:47;95708.00;;;16.70
54746;BMP180;40640;48.130;11.356;2023-07-31T03:24:50;95696.00;;;16.60
54746;BMP180;40640;48.130;11.356;2023-07-31T03:28:54;95709.00;;;16.60
54746;BMP180;40640;48.130;11.356;2023-07-31T03:32:56;95710.00;;;16.50
54746;BMP180;40640;48.130;11.356;2023-07-31T03:37:01;95711.00;;;16.50
54746;BMP180;40640;48.130;11.356;2023-07-31T03:41:04;95720.00;;;16.40
54746;BMP180;40640;48.130;11.356;2023-07-31T03:45:09;95720.00;;;16.40
54746;BMP180;40640;48.130;11.356;2023-07-31T03:49:12;95709.00;;;16.40
54746;BMP180;40640;48.130;11.356;2023-07-31T03:53:16;95716.00;;;16.20
54746;BMP180;40640;48.130;11.356;2023-07-31T03:57:19;95716.00;;;16.30
54746;BMP180;40640;48.130;11.356;2023-07-31T04:01:22;95708.00;;;16.30
54746;BMP180;40640;48.130;11.356;2023-07-31T04:05:25;95710.00;;;16.30
54746;BMP180;40640;48.130;11.356;2023-07-31T04:09:29;95709.00;;;16.30
54746;BMP180;40640;48.130;11.356;2023-07-31T04:13:32;95694.00;;;16.20
54746;BMP180;40640;48.130;11.356;2023-07-31T04:17:35;95707.00;;;16.20
54746;BMP180;40640;48.130;11.356;2023-07-31T04:21:38;95700.00;;;16.20
54746;BMP180;40640;48.130;11.356;2023-07-31T04:25:42;95695.00;;;16.30
54746;BMP180;40640;48.130;11.356;2023-07-31T04:29:45;95696.00;;;16.20
54746;BMP180;40640;48.130;11.356;2023-07-31T04:33:49;95696.00;;;16.20
54746;BMP180;40640;48.130;11.356;2023-07-31T04:37:52;95697.00;;;16.20
54746;BMP180;40640;48.130;11.356;2023-07-31T04:41:56;95699.00;;;16.20
54746;BMP180;40640;48.130;11.356;2023-07-31T04:45:59;95689.00;;;16.20
54746;BMP180;40640;48.130;11.356;2023-07-31T04:50:02;95683.00;;;16.20
54746;BMP180;40640;48.130;11.356;2023-07-31T04:54:04;95694.00;;;16.30
54746;BMP180;40640;48.130;11.356;2023-07-31T04:58:09;95679.00;;;16.40
54746;BMP180;40640;48.130;11.356;2023-07-31T05:02:12;95689.00;;;16.50
54746;BMP180;40640;48.130;11.356;2023-07-31T05:06:15;95687.00;;;16.60
54746;BMP180;40640;48.130;11.356;2023-07-31T05:10:18;95689.00;;;16.70
54746;BMP180;40640;48.130;11.356;2023-07-31T05:14:22;95689.00;;;16.80
54746;BMP180;40640;48.130;11.356;2023-07-31T05:18:25;95694.00;;;16.90
54746;BMP180;40640;48.130;11.356;2023-07-31T05:22:28;95690.00;;;17.10
54746;BMP180;40640;48.130;11.356;2023-07-31T05:26:31;95681.00;;;17.30
54746;BMP180;40640;48.130;11.356;2023-07-31T05:30:35;95690.00;;;17.50
54746;BMP180;40640;48.130;11.356;2023-07-31T05:34:38;95684.00;;;17.60
54746;BMP180;40640;48.130;11.356;2023-07-31T05:38:41;95682.00;;;17.90
54746;BMP180;40640;48.130;11.356;2023-07-31T05:42:45;95683.00;;;17.90
54746;BMP180;40640;48.130;11.356;2023-07-31T05:46:49;95686.00;;;18.00
54746;BMP180;40640;48.130;11.356;2023-07-31T05:50:52;95685.00;;;18.00
54746;BMP180;40640;48.130;11.356;2023-07-31T05:54:55;95688.00;;;18.10
54746;BMP180;40640;48.130;11.356;2023-07-31T05:58:58;95686.00;;;18.30
54746;BMP180;40640;48.130;11.356;2023-07-31T06:03:02;95687.00;;;18.80
54746;BMP180;40640;48.130;11.356;2023-07-31T06:07:06;95703.00;;;19.40
54746;BMP180;40640;48.130;11.356;2023-07-31T06:11:09;95695.00;;;19.80
54746;BMP180;40640;48.130;11.356;2023-07-31T06:15:12;95690.00;;;20.10
54746;BMP180;40640;48.130;11.356;2023-07-31T06:19:16;95693.00;;;19.90
54746;BMP180;40640;48.130;11.356;2023-07-31T06:23:19;95695.00;;;19.80
54746;BMP180;40640;48.130;11.356;2023-07-31T06:27:23;95695.00;;;19.50
54746;BMP180;40640;48.130;11.356;2023-07-31T06:31:26;95699.00;;;19.40
54746;BMP180;40640;48.130;11.356;2023-07-31T06:35:30;95700.00;;;19.40
54746;BMP180;40640;48.130;11.356;2023-07-31T06:39:33;95693.00;;;19.30
54746;BMP180;40640;48.130;11.356;2023-07-31T06:43:36;95698.00;;;19.50
54746;BMP180;40640;48.130;11.356;2023-07-31T06:47:39;95698.00;;;19.60
54746;BMP180;40640;48.130;11.356;2023-07-31T06:51:43;95673.00;;;19.60
54746;BMP180;40640;48.130;11.356;2023-07-31T06:55:46;95682.00;;;19.60
54746;BMP180;40640;48.130;11.356;2023-07-31T06:59:50;95682.00;;;19.80
54746;BMP180;40640;48.130;11.356;2023-07-31T07:03:53;95686.00;;;19.90
54746;BMP180;40640;48.130;11.356;2023-07-31T07:07:57;95689.00;;;19.90
54746;BMP180;40640;48.130;11.356;2023-07-31T07:12:00;95691.00;;;19.90
54746;BMP180;40640;48.130;11.356;2023-07-31T07:16:03;95689.00;;;20.40
54746;BMP180;40640;48.130;11.356;2023-07-31T07:20:07;95678.00;;;20.80
54746;BMP180;40640;48.130;11.356;2023-07-31T07:24:11;95686.00;;;20.70
54746;BMP180;40640;48.130;11.356;2023-07-31T07:28:14;95677.00;;;20.80
54746;BMP180;40640;48.130;11.356;2023-07-31T07:32:17;95679.00;;;21.00
54746;BMP180;40640;48.130;11.356;2023-07-31T07:36:20;95678.00;;;20.90
54746;BMP180;40640;48.130;11.356;2023-07-31T07:40:24;95666.00;;;21.20
54746;BMP180;40640;48.130;11.356;2023-07-31T07:44:27;95663.00;;;21.50
54746;BMP180;40640;48.130;11.356;2023-07-31T07:48:30;95652.00;;;21.60
54746;BMP180;40640;48.130;11.356;2023-07-31T07:52:32;95651.00;;;22.40
54746;BMP180;40640;48.130;11.356;2023-07-31T07:56:37;95653.00;;;22.50
54746;BMP180;40640;48.130;11.356;2023-07-31T08:00:41;95653.00;;;22.50
54746;BMP180;40640;48.130;11.356;2023-07-31T08:04:43;95656.00;;;22.40
54746;BMP180;40640;48.130;11.356;2023-07-31T08:08:46;95662.00;;;22.60
54746;BMP180;40640;48.130;11.356;2023-07-31T08:12:53;95657.00;;;22.80
54746;BMP180;40640;48.130;11.356;2023-07-31T08:16:56;95661.00;;;23.40
54746;BMP180;40640;48.130;11.356;2023-07-31T08:20:59;95661.00;;;23.00
54746;BMP180;40640;48.130;11.356;2023-07-31T08:25:02;95663.00;;;23.00
54746;BMP180;40640;48.130;11.356;2023-07-31T08:29:06;95670.00;;;23.10
54746;BMP180;40640;48.130;11.356;2023-07-31T08:33:09;95660.00;;;22.80
54746;BMP180;40640;48.130;11.356;2023-07-31T08:37:12;95652.00;;;22.60
54746;BMP180;40640;48.130;11.356;2023-07-31T08:41:15;95654.00;;;22.30
54746;BMP180;40640;48.130;11.356;2023-07-31T08:45:20;95650.00;;;22.00
54746;BMP180;40640;48.130;11.356;2023-07-31T08:49:23;95665.00;;;21.90
54746;BMP180;40640;48.130;11.356;2023-07-31T08:53:26;95654.00;;;22.00
54746;BMP180;40640;48.130;11.356;2023-07-31T08:57:30;95662.00;;;22.10
54746;BMP180;40640;48.130;11.356;2023-07-31T09:01:37;95656.00;;;22.30
54746;BMP180;40640;48.130;11.356;2023-07-31T09:05:45;95666.00;;;23.00
54746;BMP180;40640;48.130;11.356;2023-07-31T09:09:48;95652.00;;;23.50
54746;BMP180;40640;48.130;11.356;2023-07-31T09:13:52;95652.00;;;23.50
54746;BMP180;40640;48.130;11.356;2023-07-31T09:18:00;95639.00;;;23.30
54746;BMP180;40640;48.130;11.356;2023-07-31T09:22:04;95629.00;;;23.90
54746;BMP180;40640;48.130;11.356;2023-07-31T09:26:07;95637.00;;;24.40
54746;BMP180;40640;48.130;11.356;2023-07-31T09:30:10;95643.00;;;24.60
54746;BMP180;40640;48.130;11.356;2023-07-31T09:34:14;95632.00;;;24.50
54746;BMP180;40640;48.130;11.356;2023-07-31T09:38:17;95641.00;;;24.50
54746;BMP180;40640;48.130;11.356;2023-07-31T09:42:25;95635.00;;;24.60
54746;BMP180;40640;48.130;11.356;2023-07-31T09:46:30;95609.00;;;24.80
54746;BMP180;40640;48.130;11.356;2023-07-31T09:50:36;95620.00;;;24.70
54746;BMP180;40640;48.130;11.356;2023-07-31T09:54:39;95619.00;;;24.50
54746;BMP180;40640;48.130;11.356;2023-07-31T09:58:42;95614.00;;;24.40
54746;BMP180;40640;48.130;11.356;2023-07-31T10:02:46;95608.00;;;24.10
54746;BMP180;40640;48.130;11.356;2023-07-31T10:06:53;95595.00;;;24.10
54746;BMP180;40640;48.130;11.356;2023-07-31T10:10:58;95585.00;;;24.20
54746;BMP180;40640;48.130;11.356;2023-07-31T10:15:02;95579.00;;;24.10
54746;BMP180;40640;48.130;11.356;2023-07-31T10:19:05;95590.00;;;24.30
54746;BMP180;40640;48.130;11.356;2023-07-31T10:23:11;95578.00;;;24.30
54746;BMP180;40640;48.130;11.356;2023-07-31T10:27:14;95567.00;;;24.90
54746;BMP180;40640;48.130;11.356;2023-07-31T10:31:17;95569.00;;;25.10
54746;BMP180;40640;48.130;11.356;2023-07-31T10:35:21;95563.00;;;25.40
54746;BMP180;40640;48.130;11.356;2023-07-31T10:39:36;95570.00;;;24.90
54746;BMP180;40640;48.130;11.356;2023-07-31T10:43:41;95578.00;;;24.70
54746;BMP180;40640;48.130;11.356;2023-07-31T10:47:44;95570.00;;;24.40
54746;BMP180;40640;48.130;11.356;2023-07-31T10:51:48;95569.00;;;24.30
54746;BMP180;40640;48.130;11.356;2023-07-31T10:55:52;95557.00;;;24.30
54746;BMP180;40640;48.130;11.356;2023-07-31T11:00:17;95559.00;;;24.50
54746;BMP180;40640;48.130;11.356;2023-07-31T11:04:24;95555.00;;;24.80
54746;BMP180;40640;48.130;11.356;2023-07-31T11:08:29;95548.00;;;25.10
54746;BMP180;40640;48.130;11.356;2023-07-31T11:12:33;95537.00;;;25.30
54746;BMP180;40640;48.130;11.356;2023-07-31T11:16:36;95534.00;;;25.40
54746;BMP180;40640;48.130;11.356;2023-07-31T11:20:40;95527.00;;;25.30
54746;BMP180;40640;48.130;11.356;2023-07-31T11:24:43;95521.00;;;25.70
54746;BMP180;40640;48.130;11.356;2023-07-31T11:28:48;95520.00;;;25.80
54746;BMP180;40640;48.130;11.356;2023-07-31T11:32:51;95511.00;;;25.80
54746;BMP180;40640;48.130;11.356;2023-07-31T11:36:55;95515.00;;;25.40
54746;BMP180;40640;48.130;11.356;2023-07-31T11:40:59;95501.00;;;25.20
54746;BMP180;40640;48.130;11.356;2023-07-31T11:45:05;95486.00;;;25.30
54746;BMP180;40640;48.130;11.356;2023-07-31T11:49:08;95484.00;;;25.70
54746;BMP180;40640;48.130;11.356;2023-07-31T11:53:11;95475.00;;;26.00
54746;BMP180;40640;48.130;11.356;2023-07-31T11:57:14;95474.00;;;26.10
54746;BMP180;40640;48.130;11.356;2023-07-31T12:01:20;95481.00;;;26.40
54746;BMP180;40640;48.130;11.356;2023-07-31T12:05:24;95471.00;;;26.80
54746;BMP180;40640;48.130;11.356;2023-07-31T12:09:27;95471.00;;;25.90
54746;BMP180;40640;48.130;11.356;2023-07-31T12:13:31;95463.00;;;26.00
54746;BMP180;40640;48.130;11.356;2023-07-31T12:17:35;95452.00;;;27.20
54746;BMP180;40640;48.130;11.356;2023-07-31T12:21:38;95442.00;;;26.70
54746;BMP180;40640;48.130;11.356;2023-07-31T12:25:41;95444.00;;;26.70
54746;BMP180;40640;48.130;11.356;2023-07-31T12:29:44;95436.00;;;26.80
54746;BMP180;40640;48.130;11.356;2023-07-31T12:33:50;95431.00;;;28.80
54746;BMP180;40640;48.130;11.356;2023-07-31T12:37:53;95427.00;;;28.40
54746;BMP180;40640;48.130;11.356;2023-07-31T12:41:56;95410.00;;;28.90
54746;BMP180;40640;48.130;11.356;2023-07-31T12:45:59;95410.00;;;30.50
54746;BMP180;40640;48.130;11.356;2023-07-31T12:50:05;95413.00;;;30.50
54746;BMP180;40640;48.130;11.356;2023-07-31T12:54:08;95409.00;;;30.90
54746;BMP180;40640;48.130;11.356;2023-07-31T12:58:11;95408.00;;;31.90
54746;BMP180;40640;48.130;11.356;2023-07-31T13:02:13;95403.00;;;31.20
54746;BMP180;40640;48.130;11.356;2023-07-31T13:06:22;95399.00;;;30.50
54746;BMP180;40640;48.130;11.356;2023-07-31T13:10:25;95392.00;;;32.10
54746;BMP180;40640;48.130;11.356;2023-07-31T13:14:30;95384.00;;;32.80
54746;BMP180;40640;48.130;11.356;2023-07-31T13:18:33;95388.00;;;32.70
54746;BMP180;40640;48.130;11.356;2023-07-31T13:22:37;95387.00;;;31.50
54746;BMP180;40640;48.130;11.356;2023-07-31T13:26:40;95382.00;;;32.90
54746;BMP180;40640;48.130;11.356;2023-07-31T13:30:43;95382.00;;;32.90
54746;BMP180;40640;48.130;11.356;2023-07-31T13:34:46;95388.00;;;31.80
54746;BMP180;40640;48.130;11.356;2023-07-31T13:38:50;95381.00;;;30.60
54746;BMP180;40640;48.130;11.356;2023-07-31T13:42:53;95380.00;;;30.20
54746;BMP180;40640;48.130;11.356;2023-07-31T13:46:57;95366.00;;;30.30
54746;BMP180;40640;48.130;11.356;2023-07-31T13:51:00;95368.00;;;29.30
54746;BMP180;40640;48.130;11.356;2023-07-31T13:55:05;95358.00;;;28.60
54746;BMP180;40640;48.130;11.356;2023-07-31T13:59:08;95361.00;;;28.50
54746;BMP180;40640;48.130;11.356;2023-07-31T14:03:11;95366.00;;;28.10
54746;BMP180;40640;48.130;11.356;2023-07-31T14:07:14;95369.00;;;27.90
54746;BMP180;40640;48.130;11.356;2023-07-31T14:11:20;95361.00;;;27.70
54746;BMP180;40640;48.130;11.356;2023-07-31T14:15:23;95361.00;;;27.80
54746;BMP180;40640;48.130;11.356;2023-07-31T14:19:26;95355.00;;;27.70
54746;BMP180;40640;48.130;11.356;2023-07-31T14:23:29;95347.00;;;27.70
54746;BMP180;40640;48.130;11.356;2023-07-31T14:27:33;95353.00;;;27.70
54746;BMP180;40640;48.130;11.356;2023-07-31T14:31:36;95345.00;;;27.70
54746;BMP180;40640;48.130;11.356;2023-07-31T14:35:39;95343.00;;;27.40
54746;BMP180;40640;48.130;11.356;2023-07-31T14:39:42;95338.00;;;27.30
54746;BMP180;40640;48.130;11.356;2023-07-31T14:43:46;95349.00;;;27.10
54746;BMP180;40640;48.130;11.356;2023-07-31T14:47:49;95336.00;;;27.10
54746;BMP180;40640;48.130;11.356;2023-07-31T14:51:52;95333.00;;;27.00
54746;BMP180;40640;48.130;11.356;2023-07-31T14:55:55;95333.00;;;27.10
54746;BMP180;40640;48.130;11.356;2023-07-31T15:00:00;95338.00;;;27.10
54746;BMP180;40640;48.130;11.356;2023-07-31T15:04:03;95330.00;;;27.10
54746;BMP180;40640;48.130;11.356;2023-07-31T15:08:06;95337.00;;;26.90
54746;BMP180;40640;48.130;11.356;2023-07-31T15:12:09;95342.00;;;26.80
54746;BMP180;40640;48.130;11.356;2023-07-31T15:16:13;95346.00;;;26.80
54746;BMP180;40640;48.130;11.356;2023-07-31T15:20:16;95334.00;;;26.60
54746;BMP180;40640;48.130;11.356;2023-07-31T15:24:19;95334.00;;;26.40
54746;BMP180;40640;48.130;11.356;2023-07-31T15:28:22;95330.00;;;26.20
54746;BMP180;40640;48.130;11.356;2023-07-31T15:32:26;95329.00;;;26.00
54746;BMP180;40640;48.130;11.356;2023-07-31T15:36:29;95328.00;;;25.80
54746;BMP180;40640;48.130;11.356;2023-07-31T15:40:32;95331.00;;;25.70
54746;BMP180;40640;48.130;11.356;2023-07-31T15:44:36;95330.00;;;25.50
54746;BMP180;40640;48.130;11.356;2023-07-31T15:48:40;95330.00;;;25.40
54746;BMP180;40640;48.130;11.356;2023-07-31T15:52:43;95316.00;;;25.30
54746;BMP180;40640;48.130;11.356;2023-07-31T15:56:47;95315.00;;;25.20
54746;BMP180;40640;48.130;11.356;2023-07-31T16:00:50;95311.00;;;25.10
54746;BMP180;40640;48.130;11.356;2023-07-31T16:04:54;95303.00;;;25.20
54746;BMP180;40640;48.130;11.356;2023-07-31T16:08:57;95287.00;;;25.20
54746;BMP180;40640;48.130;11.356;2023-07-31T16:12:59;95298.00;;;25.10
54746;BMP180;40640;48.130;11.356;2023-07-31T16:17:03;95307.00;;;25.10
54746;BMP180;40640;48.130;11.356;2023-07-31T16:21:07;95299.00;;;24.90
54746;BMP180;40640;48.130;11.356;2023-07-31T16:25:10;95296.00;;;24.80
54746;BMP180;40640;48.130;11.356;2023-07-31T16:29:13;95296.00;;;24.60
54746;BMP180;40640;48.130;11.356;2023-07-31T16:33:16;95300.00;;;24.50
54746;BMP180;40640;48.130;11.356;2023-07-31T16:37:20;95300.00;;;24.40
54746;BMP180;40640;48.130;11.356;2023-07-31T16:41:23;95302.00;;;24.40
54746;BMP180;40640;48.130;11.356;2023-07-31T16:45:26;95298.00;;;24.30
54746;BMP180;40640;48.130;11.356;2023-07-31T16:49:29;95301.00;;;24.20
54746;BMP180;40640;48.130;11.356;2023-07-31T16:53:33;95293.00;;;24.10
54746;BMP180;40640;48.130;11.356;2023-07-31T16:57:37;95288.00;;;24.10
54746;BMP180;40640;48.130;11.356;2023-07-31T17:01:39;95285.00;;;24.00
54746;BMP180;40640;48.130;11.356;2023-07-31T17:05:43;95283.00;;;24.00
54746;BMP180;40640;48.130;11.356;2023-07-31T17:09:47;95282.00;;;24.00
54746;BMP180;40640;48.130;11.356;2023-07-31T17:13:50;95281.00;;;24.00
54746;BMP180;40640;48.130;11.356;2023-07-31T17:17:53;95280.00;;;23.90
54746;BMP180;40640;48.130;11.356;2023-07-31T17:21:56;95271.00;;;23.90
54746;BMP180;40640;48.130;11.356;2023-07-31T17:26:01;95273.00;;;23.80
54746;BMP180;40640;48.130;11.356;2023-07-31T17:30:05;95272.00;;;23.80
54746;BMP180;40640;48.130;11.356;2023-07-31T17:34:08;95273.00;;;23.80
54746;BMP180;40640;48.130;11.356;2023-07-31T17:38:11;95268.00;;;23.70
54746;BMP180;40640;48.130;11.356;2023-07-31T17:42:16;95259.00;;;23.70
54746;BMP180;40640;48.130;11.356;2023-07-31T17:46:19;95250.00;;;23.70
54746;BMP180;40640;48.130;11.356;2023-07-31T17:50:22;95238.00;;;23.60
54746;BMP180;40640;48.130;11.356;2023-07-31T17:54:24;95233.00;;;23.70
54746;BMP180;40640;48.130;11.356;2023-07-31T17:58:30;95236.00;;;23.60
54746;BMP180;40640;48.130;11.356;2023-07-31T18:02:33;95234.00;;;23.60
54746;BMP180;40640;48.130;11.356;2023-07-31T18:06:37;95225.00;;;23.50
54746;BMP180;40640;48.130;11.356;2023-07-31T18:10:44;95237.00;;;23.40
54746;BMP180;40640;48.130;11.356;2023-07-31T18:14:48;95230.00;;;23.30
54746;BMP180;40640;48.130;11.356;2023-07-31T18:18:51;95229.00;;;23.20
54746;BMP180;40640;48.130;11.356;2023-07-31T18:22:54;95225.00;;;23.10
54746;BMP180;40640;48.130;11.356;2023-07-31T18:26:57;95211.00;;;23.00
54746;BMP180;40640;48.130;11.356;2023-07-31T18:31:01;95203.00;;;22.90
54746;BMP180;40640;48.130;11.356;2023-07-31T18:35:05;95193.00;;;22.80
54746;BMP180;40640;48.130;11.356;2023-07-31T18:39:08;95192.00;;;22.80
54746;BMP180;40640;48.130;11.356;2023-07-31T18:43:12;95201.00;;;22.70
54746;BMP180;40640;48.130;11.356;2023-07-31T18:47:16;95209.00;;;22.60
54746;BMP180;40640;48.130;11.356;2023-07-31T18:51:19;95197.00;;;22.40
54746;BMP180;40640;48.130;11.356;2023-07-31T18:55:22;95196.00;;;22.40
54746;BMP180;40640;48.130;11.356;2023-07-31T18:59:27;95204.00;;;22.30
54746;BMP180;40640;48.130;11.356;2023-07-31T19:03:31;95203.00;;;22.10
54746;BMP180;40640;48.130;11.356;2023-07-31T19:07:34;95198.00;;;22.10
54746;BMP180;40640;48.130;11.356;2023-07-31T19:11:37;95195.00;;;22.00
54746;BMP180;40640;48.130;11.356;2023-07-31T19:15:40;95209.00;;;21.80
54746;BMP180;40640;48.130;11.356;2023-07-31T19:19:45;95196.00;;;21.80
54746;BMP180;40640;48.130;11.356;2023-07-31T19:23:48;95205.00;;;21.80
54746;BMP180;40640;48.130;11.356;2023-07-31T19:27:51;95211.00;;;21.70
54746;BMP180;40640;48.130;11.356;2023-07-31T19:31:58;95222.00;;;21.70
54746;BMP180;40640;48.130;11.356;2023-07-31T19:36:03;95209.00;;;21.60
54746;BMP180;40640;48.130;11.356;2023-07-31T19:40:06;95214.00;;;21.70
54746;BMP180;40640;48.130;11.356;2023-07-31T19:44:09;95219.00;;;21.70
54746;BMP180;40640;48.130;11.356;2023-07-31T19:48:12;95215.00;;;21.60
54746;BMP180;40640;48.130;11.356;2023-07-31T19:52:17;95214.00;;;21.50
54746;BMP180;40640;48.130;11.356;2023-07-31T19:56:20;95210.00;;;21.40
54746;BMP180;40640;48.130;11.356;2023-07-31T20:00:23;95194.00;;;21.40
54746;BMP180;40640;48.130;11.356;2023-07-31T20:04:26;95197.00;;;21.40
54746;BMP180;40640;48.130;11.356;2023-07-31T20:08:30;95188.00;;;21.30
54746;BMP180;40640;48.130;11.356;2023-07-31T20:12:33;95184.00;;;21.30
54746;BMP180;40640;48.130;11.356;2023-07-31T20:16:38;95179.00;;;21.30
54746;BMP180;40640;48.130;11.356;2023-07-31T20:20:43;95178.00;;;21.30
54746;BMP180;40640;48.130;11.356;2023-07-31T20:24:47;95177.00;;;21.20
54746;BMP180;40640;48.130;11.356;2023-07-31T20:28:50;95162.00;;;21.20
54746;BMP180;40640;48.130;11.356;2023-07-31T20:32:53;95168.00;;;21.20
54746;BMP180;40640;48.130;11.356;2023-07-31T20:36:56;95161.00;;;21.20
54746;BMP180;40640;48.130;11.356;2023-07-31T20:41:00;95157.00;;;21.10
54746;BMP180;40640;48.130;11.356;2023-07-31T20:45:03;95140.00;;;21.10
54746;BMP180;40640;48.130;11.356;2023-07-31T20:49:07;95142.00;;;21.10
54746;BMP180;40640;48.130;11.356;2023-07-31T20:53:09;95151.00;;;21.10
54746;BMP180;40640;48.130;11.356;2023-07-31T20:57:14;95144.00;;;21.10
54746;BMP180;40640;48.130;11.356;2023-07-31T21:01:16;95140.00;;;21.10
54746;BMP180;40640;48.130;11.356;2023-07-31T21:05:19;95133.00;;;21.10
54746;BMP180;40640;48.130;11.356;2023-07-31T21:09:22;95127.00;;;21.10
54746;BMP180;40640;48.130;11.356;2023-07-31T21:13:27;95117.00;;;21.10
54746;BMP180;40640;48.130;11.356;2023-07-31T21:17:29;95108.00;;;21.20
54746;BMP180;40640;48.130;11.356;2023-07-31T21:21:33;95114.00;;;21.20
54746;BMP180;40640;48.130;11.356;2023-07-31T21:25:36;95113.00;;;21.20
54746;BMP180;40640;48.130;11.356;2023-07-31T21:29:41;95104.00;;;21.10
54746;BMP180;40640;48.130;11.356;2023-07-31T21:33:43;95101.00;;;21.10
54746;BMP180;40640;48.130;11.356;2023-07-31T21:37:46;95100.00;;;21.10
54746;BMP180;40640;48.130;11.356;2023-07-31T21:41:49;95102.00;;;21.10
54746;BMP180;40640;48.130;11.356;2023-07-31T21:45:54;95093.00;;;21.10
54746;BMP180;40640;48.130;11.356;2023-07-31T21:49:57;95080.00;;;21.10
54746;BMP180;40640;48.130;11.356;2023-07-31T21:53:59;95076.00;;;21.10
54746;BMP180;40640;48.130;11.356;2023-07-31T21:58:02;95070.00;;;21.10
54746;BMP180;40640;48.130;11.356;2023-07-31T22:02:07;95075.00;;;21.00
54746;BMP180;40640;48.130;11.356;2023-07-31T22:06:10;95077.00;;;21.00
54746;BMP180;40640;48.130;11.356;2023-07-31T22:10:13;95074.00;;;21.10
54746;BMP180;40640;48.130;11.356;2023-07-31T22:14:16;95063.00;;;21.20
54746;BMP180;40640;48.130;11.356;2023-07-31T22:18:20;95044.00;;;21.10
54746;BMP180;40640;48.130;11.356;2023-07-31T22:22:23;95054.00;;;21.00
54746;BMP180;40640;48.130;11.356;2023-07-31T22:26:26;95066.00;;;21.00
54746;BMP180;40640;48.130;11.356;2023-07-31T22:30:29;95034.00;;;21.00
54746;BMP180;40640;48.130;11.356;2023-07-31T22:34:33;95038.00;;;20.90
54746;BMP180;40640;48.130;11.356;2023-07-31T22:38:36;95037.00;;;20.80
54746;BMP180;40640;48.130;11.356;2023-07-31T22:42:39;95033.00;;;20.70
54746;BMP180;40640;48.130;11.356;2023-07-31T22:46:42;95027.00;;;20.70
54746;BMP180;40640;48.130;11.356;2023-07-31T22:50:47;95014.00;;;20.60
54746;BMP180;40640;48.130;11.356;2023-07-31T22:54:50;95015.00;;;20.60
54746;BMP180;40640;48.130;11.356;2023-07-31T22:58:53;95010.00;;;20.40
54746;BMP180;40640;48.130;11.356;2023-07-31T23:02:57;94998.00;;;20.40